sensor_id;sensor_type;location;lat;lon;timestamp;pressure;altitude;pressure_sealevel;temperature
65569;BMP180;52211;50.154;8.682;2022-12-10T00:01:50;99032.00;;;7.20
65569;BMP180;52211;50.154;8.682;2022-12-10T00:04:20;99033.00;;;7.20
65569;BMP180;52211;50.154;8.682;2022-12-10T00:06:50;99041.00;;;7.20
65569;BMP180;52211;50.154;8.682;2022-12-10T00:09:20;99053.00;;;7.20
65569;BMP180;52211;50.154;8.682;2022-12-10T00:11:49;99050.00;;;7.20
65569;BMP180;52211;50.154;8.682;2022-12-10T00:14:19;99049.00;;;7.20
65569;BMP180;52211;50.154;8.682;2022-12-10T00:16:46;99044.00;;;7.10
65569;BMP180;52211;50.154;8.682;2022-12-10T00:19:15;99054.00;;;7.10
65569;BMP180;52211;50.154;8.682;2022-12-10T00:21:47;99063.00;;;7.00
65569;BMP180;52211;50.154;8.682;2022-12-10T00:24:14;99056.00;;;7.00
65569;BMP180;52211;50.154;8.682;2022-12-10T00:26:41;99053.00;;;7.00
65569;BMP180;52211;50.154;8.682;2022-12-10T00:29:12;99051.00;;;7.00
65569;BMP180;52211;50.154;8.682;2022-12-10T00:31:40;99054.00;;;7.00
65569;BMP180;52211;50.154;8.682;2022-12-10T00:34:12;99060.00;;;7.00
65569;BMP180;52211;50.154;8.682;2022-12-10T00:36:49;99053.00;;;7.00
65569;BMP180;52211;50.154;8.682;2022-12-10T00:39:20;99057.00;;;7.00
65569;BMP180;52211;50.154;8.682;2022-12-10T00:41:50;99054.00;;;7.00
65569;BMP180;52211;50.154;8.682;2022-12-10T00:44:19;99051.00;;;7.00
65569;BMP180;52211;50.154;8.682;2022-12-10T00:46:50;99043.00;;;7.00
65569;BMP180;52211;50.154;8.682;2022-12-10T00:49:21;99048.00;;;7.00
65569;BMP180;52211;50.154;8.682;2022-12-10T00:51:56;99054.00;;;7.00
65569;BMP180;52211;50.154;8.682;2022-12-10T00:54:23;99057.00;;;7.10
65569;BMP180;52211;50.154;8.682;2022-12-10T00:56:52;99056.00;;;7.10
65569;BMP180;52211;50.154;8.682;2022-12-10T00:59:24;99052.00;;;7.10
65569;BMP180;52211;50.154;8.682;2022-12-10T01:01:51;99049.00;;;7.10
65569;BMP180;52211;50.154;8.682;2022-12-10T01:04:19;99037.00;;;7.10
65569;BMP180;52211;50.154;8.682;2022-12-10T01:06:52;99049.00;;;7.10
65569;BMP180;52211;50.154;8.682;2022-12-10T01:09:28;99049.00;;;7.10
65569;BMP180;52211;50.154;8.682;2022-12-10T01:12:03;99043.00;;;7.10
65569;BMP180;52211;50.154;8.682;2022-12-10T01:14:32;99056.00;;;7.10
65569;BMP180;52211;50.154;8.682;2022-12-10T01:17:04;99061.00;;;7.10
65569;BMP180;52211;50.154;8.682;2022-12-10T01:19:35;99066.00;;;7.10
65569;BMP180;52211;50.154;8.682;2022-12-10T01:22:03;99065.00;;;7.10
65569;BMP180;52211;50.154;8.682;2022-12-10T01:24:38;99074.00;;;7.10
65569;BMP180;52211;50.154;8.682;2022-12-10T01:27:12;99069.00;;;7.00
65569;BMP180;52211;50.154;8.682;2022-12-10T01:29:41;99072.00;;;7.00
65569;BMP180;52211;50.154;8.682;2022-12-10T01:32:11;99078.00;;;7.00
65569;BMP180;52211;50.154;8.682;2022-12-10T01:34:38;99074.00;;;7.00
65569;BMP180;52211;50.154;8.682;2022-12-10T01:37:05;99079.00;;;7.00
65569;BMP180;52211;50.154;8.682;2022-12-10T01:39:32;99084.00;;;7.00
65569;BMP180;52211;50.154;8.682;2022-12-10T01:42:04;99088.00;;;7.00
65569;BMP180;52211;50.154;8.682;2022-12-10T01:47:10;99094.00;;;6.90
65569;BMP180;52211;50.154;8.682;2022-12-10T01:49:40;99094.00;;;6.90
65569;BMP180;52211;50.154;8.682;2022-12-10T01:52:14;99100.00;;;6.90
65569;BMP180;52211;50.154;8.682;2022-12-10T01:54:48;99096.00;;;6.80
65569;BMP180;52211;50.154;8.682;2022-12-10T01:57:25;99098.00;;;6.80
65569;BMP180;52211;50.154;8.682;2022-12-10T01:59:57;99106.00;;;6.80
65569;BMP180;52211;50.154;8.682;2022-12-10T02:02:56;99110.00;;;6.70
65569;BMP180;52211;50.154;8.682;2022-12-10T02:05:36;99106.00;;;6.70
65569;BMP180;52211;50.154;8.682;2022-12-10T02:08:32;99102.00;;;6.70
65569;BMP180;52211;50.154;8.682;2022-12-10T02:13:58;99105.00;;;6.70
65569;BMP180;52211;50.154;8.682;2022-12-10T02:16:40;99097.00;;;6.60
65569;BMP180;52211;50.154;8.682;2022-12-10T02:22:20;99093.00;;;6.50
65569;BMP180;52211;50.154;8.682;2022-12-10T02:24:54;99091.00;;;6.50
65569;BMP180;52211;50.154;8.682;2022-12-10T02:27:27;99088.00;;;6.50
65569;BMP180;52211;50.154;8.682;2022-12-10T02:30:00;99092.00;;;6.50
65569;BMP180;52211;50.154;8.682;2022-12-10T02:32:39;99072.00;;;6.40
65569;BMP180;52211;50.154;8.682;2022-12-10T02:35:19;99075.00;;;6.40
65569;BMP180;52211;50.154;8.682;2022-12-10T02:38:07;99078.00;;;6.40
65569;BMP180;52211;50.154;8.682;2022-12-10T02:40:38;99074.00;;;6.30
65569;BMP180;52211;50.154;8.682;2022-12-10T02:43:12;99078.00;;;6.30
65569;BMP180;52211;50.154;8.682;2022-12-10T02:45:43;99086.00;;;6.30
65569;BMP180;52211;50.154;8.682;2022-12-10T02:48:19;99088.00;;;6.30
65569;BMP180;52211;50.154;8.682;2022-12-10T02:50:46;99086.00;;;6.30
65569;BMP180;52211;50.154;8.682;2022-12-10T02:53:20;99085.00;;;6.30
65569;BMP180;52211;50.154;8.682;2022-12-10T02:56:20;99086.00;;;6.20
65569;BMP180;52211;50.154;8.682;2022-12-10T02:59:26;99090.00;;;6.20
65569;BMP180;52211;50.154;8.682;2022-12-10T03:02:07;99092.00;;;6.20
65569;BMP180;52211;50.154;8.682;2022-12-10T03:04:54;99088.00;;;6.10
65569;BMP180;52211;50.154;8.682;2022-12-10T03:07:39;99095.00;;;6.10
65569;BMP180;52211;50.154;8.682;2022-12-10T03:10:37;99094.00;;;6.10
65569;BMP180;52211;50.154;8.682;2022-12-10T03:13:13;99079.00;;;6.00
65569;BMP180;52211;50.154;8.682;2022-12-10T03:15:42;99085.00;;;6.00
65569;BMP180;52211;50.154;8.682;2022-12-10T03:18:15;99084.00;;;6.00
65569;BMP180;52211;50.154;8.682;2022-12-10T03:20:47;99083.00;;;6.00
65569;BMP180;52211;50.154;8.682;2022-12-10T03:23:19;99077.00;;;6.00
65569;BMP180;52211;50.154;8.682;2022-12-10T03:25:50;99080.00;;;5.90
65569;BMP180;52211;50.154;8.682;2022-12-10T03:28:23;99079.00;;;5.90
65569;BMP180;52211;50.154;8.682;2022-12-10T03:30:54;99076.00;;;5.90
65569;BMP180;52211;50.154;8.682;2022-12-10T03:33:24;99075.00;;;5.90
65569;BMP180;52211;50.154;8.682;2022-12-10T03:35:58;99077.00;;;5.90
65569;BMP180;52211;50.154;8.682;2022-12-10T03:38:26;99070.00;;;5.80
65569;BMP180;52211;50.154;8.682;2022-12-10T03:40:53;99070.00;;;5.80
65569;BMP180;52211;50.154;8.682;2022-12-10T03:43:27;99073.00;;;5.80
65569;BMP180;52211;50.154;8.682;2022-12-10T03:45:58;99066.00;;;5.80
65569;BMP180;52211;50.154;8.682;2022-12-10T03:48:26;99072.00;;;5.70
65569;BMP180;52211;50.154;8.682;2022-12-10T03:50:55;99073.00;;;5.70
65569;BMP180;52211;50.154;8.682;2022-12-10T03:53:24;99073.00;;;5.70
65569;BMP180;52211;50.154;8.682;2022-12-10T03:55:51;99079.00;;;5.70
65569;BMP180;52211;50.154;8.682;2022-12-10T03:58:27;99075.00;;;5.70
65569;BMP180;52211;50.154;8.682;2022-12-10T04:00:56;99080.00;;;5.70
65569;BMP180;52211;50.154;8.682;2022-12-10T04:03:30;99071.00;;;5.60
65569;BMP180;52211;50.154;8.682;2022-12-10T04:06:07;99079.00;;;5.60
65569;BMP180;52211;50.154;8.682;2022-12-10T04:08:37;99070.00;;;5.60
65569;BMP180;52211;50.154;8.682;2022-12-10T04:11:06;99078.00;;;5.60
65569;BMP180;52211;50.154;8.682;2022-12-10T04:13:35;99075.00;;;5.50
65569;BMP180;52211;50.154;8.682;2022-12-10T04:16:24;99077.00;;;5.50
65569;BMP180;52211;50.154;8.682;2022-12-10T04:19:08;99084.00;;;5.50
65569;BMP180;52211;50.154;8.682;2022-12-10T04:21:42;99080.00;;;5.50
65569;BMP180;52211;50.154;8.682;2022-12-10T04:24:31;99080.00;;;5.40
65569;BMP180;52211;50.154;8.682;2022-12-10T04:27:26;99080.00;;;5.40
65569;BMP180;52211;50.154;8.682;2022-12-10T04:29:57;99087.00;;;5.40
65569;BMP180;52211;50.154;8.682;2022-12-10T04:32:28;99084.00;;;5.40
65569;BMP180;52211;50.154;8.682;2022-12-10T04:34:56;99093.00;;;5.40
65569;BMP180;52211;50.154;8.682;2022-12-10T04:37:27;99092.00;;;5.40
65569;BMP180;52211;50.154;8.682;2022-12-10T04:39:56;99089.00;;;5.30
65569;BMP180;52211;50.154;8.682;2022-12-10T04:42:23;99086.00;;;5.30
65569;BMP180;52211;50.154;8.682;2022-12-10T04:44:57;99087.00;;;5.30
65569;BMP180;52211;50.154;8.682;2022-12-10T04:47:28;99085.00;;;5.30
65569;BMP180;52211;50.154;8.682;2022-12-10T04:49:55;99091.00;;;5.20
65569;BMP180;52211;50.154;8.682;2022-12-10T04:52:22;99086.00;;;5.20
65569;BMP180;52211;50.154;8.682;2022-12-10T04:54:51;99082.00;;;5.20
65569;BMP180;52211;50.154;8.682;2022-12-10T04:57:18;99075.00;;;5.20
65569;BMP180;52211;50.154;8.682;2022-12-10T04:59:45;99084.00;;;5.10
65569;BMP180;52211;50.154;8.682;2022-12-10T05:02:13;99085.00;;;5.10
65569;BMP180;52211;50.154;8.682;2022-12-10T05:04:42;99086.00;;;5.10
65569;BMP180;52211;50.154;8.682;2022-12-10T05:07:09;99090.00;;;5.10
65569;BMP180;52211;50.154;8.682;2022-12-10T05:09:41;99087.00;;;5.10
65569;BMP180;52211;50.154;8.682;2022-12-10T05:12:14;99090.00;;;5.10
65569;BMP180;52211;50.154;8.682;2022-12-10T05:14:43;99094.00;;;5.00
65569;BMP180;52211;50.154;8.682;2022-12-10T05:17:10;99109.00;;;5.00
65569;BMP180;52211;50.154;8.682;2022-12-10T05:19:37;99102.00;;;5.00
65569;BMP180;52211;50.154;8.682;2022-12-10T05:22:03;99101.00;;;5.00
65569;BMP180;52211;50.154;8.682;2022-12-10T05:24:53;99097.00;;;5.00
65569;BMP180;52211;50.154;8.682;2022-12-10T05:27:23;99102.00;;;5.00
65569;BMP180;52211;50.154;8.682;2022-12-10T05:29:49;99099.00;;;5.00
65569;BMP180;52211;50.154;8.682;2022-12-10T05:32:26;99112.00;;;5.00
65569;BMP180;52211;50.154;8.682;2022-12-10T05:34:55;99103.00;;;5.00
65569;BMP180;52211;50.154;8.682;2022-12-10T05:37:22;99103.00;;;5.00
65569;BMP180;52211;50.154;8.682;2022-12-10T05:39:51;99096.00;;;5.00
65569;BMP180;52211;50.154;8.682;2022-12-10T05:42:20;99107.00;;;5.00
65569;BMP180;52211;50.154;8.682;2022-12-10T05:44:51;99114.00;;;5.00
65569;BMP180;52211;50.154;8.682;2022-12-10T05:47:18;99108.00;;;5.00
65569;BMP180;52211;50.154;8.682;2022-12-10T05:49:45;99117.00;;;5.00
65569;BMP180;52211;50.154;8.682;2022-12-10T05:52:18;99120.00;;;5.00
65569;BMP180;52211;50.154;8.682;2022-12-10T05:54:45;99113.00;;;5.00
65569;BMP180;52211;50.154;8.682;2022-12-10T05:57:18;99102.00;;;4.90
65569;BMP180;52211;50.154;8.682;2022-12-10T05:59:47;99117.00;;;4.90
65569;BMP180;52211;50.154;8.682;2022-12-10T06:02:16;99115.00;;;4.90
65569;BMP180;52211;50.154;8.682;2022-12-10T06:04:45;99119.00;;;4.90
65569;BMP180;52211;50.154;8.682;2022-12-10T06:07:12;99121.00;;;4.90
65569;BMP180;52211;50.154;8.682;2022-12-10T06:09:41;99117.00;;;5.00
65569;BMP180;52211;50.154;8.682;2022-12-10T06:12:08;99120.00;;;5.00
65569;BMP180;52211;50.154;8.682;2022-12-10T06:14:37;99119.00;;;5.00
65569;BMP180;52211;50.154;8.682;2022-12-10T06:17:04;99123.00;;;5.00
65569;BMP180;52211;50.154;8.682;2022-12-10T06:19:35;99126.00;;;5.10
65569;BMP180;52211;50.154;8.682;2022-12-10T06:22:07;99131.00;;;5.10
65569;BMP180;52211;50.154;8.682;2022-12-10T06:24:34;99131.00;;;5.10
65569;BMP180;52211;50.154;8.682;2022-12-10T06:27:00;99131.00;;;5.10
65569;BMP180;52211;50.154;8.682;2022-12-10T06:29:27;99126.00;;;5.20
65569;BMP180;52211;50.154;8.682;2022-12-10T06:31:56;99128.00;;;5.20
65569;BMP180;52211;50.154;8.682;2022-12-10T06:34:26;99132.00;;;5.20
65569;BMP180;52211;50.154;8.682;2022-12-10T06:36:52;99140.00;;;5.30
65569;BMP180;52211;50.154;8.682;2022-12-10T06:39:22;99141.00;;;5.30
65569;BMP180;52211;50.154;8.682;2022-12-10T06:41:51;99147.00;;;5.30
65569;BMP180;52211;50.154;8.682;2022-12-10T06:44:26;99155.00;;;5.40
65569;BMP180;52211;50.154;8.682;2022-12-10T06:46:55;99152.00;;;5.40
65569;BMP180;52211;50.154;8.682;2022-12-10T06:49:22;99149.00;;;5.50
65569;BMP180;52211;50.154;8.682;2022-12-10T06:51:56;99151.00;;;5.50
65569;BMP180;52211;50.154;8.682;2022-12-10T06:54:25;99153.00;;;5.60
65569;BMP180;52211;50.154;8.682;2022-12-10T06:56:57;99158.00;;;5.70
65569;BMP180;52211;50.154;8.682;2022-12-10T06:59:26;99162.00;;;5.70
65569;BMP180;52211;50.154;8.682;2022-12-10T07:01:53;99163.00;;;5.70
65569;BMP180;52211;50.154;8.682;2022-12-10T07:04:23;99169.00;;;5.80
65569;BMP180;52211;50.154;8.682;2022-12-10T07:06:50;99175.00;;;5.80
65569;BMP180;52211;50.154;8.682;2022-12-10T07:09:17;99172.00;;;5.90
65569;BMP180;52211;50.154;8.682;2022-12-10T07:11:49;99174.00;;;5.90
65569;BMP180;52211;50.154;8.682;2022-12-10T07:14:23;99175.00;;;5.90
65569;BMP180;52211;50.154;8.682;2022-12-10T07:16:50;99181.00;;;5.90
65569;BMP180;52211;50.154;8.682;2022-12-10T07:19:17;99181.00;;;6.00
65569;BMP180;52211;50.154;8.682;2022-12-10T07:21:46;99186.00;;;6.00
65569;BMP180;52211;50.154;8.682;2022-12-10T07:24:18;99184.00;;;6.10
65569;BMP180;52211;50.154;8.682;2022-12-10T07:26:47;99192.00;;;6.10
65569;BMP180;52211;50.154;8.682;2022-12-10T07:29:19;99199.00;;;6.20
65569;BMP180;52211;50.154;8.682;2022-12-10T07:31:52;99202.00;;;6.20
65569;BMP180;52211;50.154;8.682;2022-12-10T07:34:21;99201.00;;;6.20
65569;BMP180;52211;50.154;8.682;2022-12-10T07:36:50;99204.00;;;6.30
65569;BMP180;52211;50.154;8.682;2022-12-10T07:39:17;99206.00;;;6.30
65569;BMP180;52211;50.154;8.682;2022-12-10T07:41:50;99205.00;;;6.40
65569;BMP180;52211;50.154;8.682;2022-12-10T07:44:25;99203.00;;;6.40
65569;BMP180;52211;50.154;8.682;2022-12-10T07:46:55;99202.00;;;6.40
65569;BMP180;52211;50.154;8.682;2022-12-10T07:49:29;99198.00;;;6.50
65569;BMP180;52211;50.154;8.682;2022-12-10T07:51:56;99202.00;;;6.50
65569;BMP180;52211;50.154;8.682;2022-12-10T07:54:27;99201.00;;;6.60
65569;BMP180;52211;50.154;8.682;2022-12-10T07:56:57;99206.00;;;6.60
65569;BMP180;52211;50.154;8.682;2022-12-10T07:59:24;99211.00;;;6.60
65569;BMP180;52211;50.154;8.682;2022-12-10T08:01:53;99210.00;;;6.70
65569;BMP180;52211;50.154;8.682;2022-12-10T08:04:29;99212.00;;;6.70
65569;BMP180;52211;50.154;8.682;2022-12-10T08:06:57;99211.00;;;6.80
65569;BMP180;52211;50.154;8.682;2022-12-10T08:09:24;99211.00;;;6.80
65569;BMP180;52211;50.154;8.682;2022-12-10T08:11:53;99220.00;;;6.90
65569;BMP180;52211;50.154;8.682;2022-12-10T08:14:20;99225.00;;;6.90
65569;BMP180;52211;50.154;8.682;2022-12-10T08:16:49;99223.00;;;6.90
65569;BMP180;52211;50.154;8.682;2022-12-10T08:19:21;99227.00;;;7.00
65569;BMP180;52211;50.154;8.682;2022-12-10T08:21:58;99224.00;;;7.00
65569;BMP180;52211;50.154;8.682;2022-12-10T08:24:25;99229.00;;;7.10
65569;BMP180;52211;50.154;8.682;2022-12-10T08:26:52;99221.00;;;7.10
65569;BMP180;52211;50.154;8.682;2022-12-10T08:29:24;99226.00;;;7.20
65569;BMP180;52211;50.154;8.682;2022-12-10T08:31:51;99224.00;;;7.20
65569;BMP180;52211;50.154;8.682;2022-12-10T08:34:20;99230.00;;;7.20
65569;BMP180;52211;50.154;8.682;2022-12-10T08:36:52;99227.00;;;7.30
65569;BMP180;52211;50.154;8.682;2022-12-10T08:39:19;99233.00;;;7.30
65569;BMP180;52211;50.154;8.682;2022-12-10T08:41:46;99232.00;;;7.30
65569;BMP180;52211;50.154;8.682;2022-12-10T08:44:17;99243.00;;;7.40
65569;BMP180;52211;50.154;8.682;2022-12-10T08:46:47;99238.00;;;7.40
65569;BMP180;52211;50.154;8.682;2022-12-10T08:49:13;99239.00;;;7.50
65569;BMP180;52211;50.154;8.682;2022-12-10T08:51:43;99244.00;;;7.50
65569;BMP180;52211;50.154;8.682;2022-12-10T08:54:12;99247.00;;;7.60
65569;BMP180;52211;50.154;8.682;2022-12-10T08:56:41;99258.00;;;7.60
65569;BMP180;52211;50.154;8.682;2022-12-10T08:59:10;99254.00;;;7.70
65569;BMP180;52211;50.154;8.682;2022-12-10T09:01:37;99248.00;;;7.70
65569;BMP180;52211;50.154;8.682;2022-12-10T09:04:06;99258.00;;;7.70
65569;BMP180;52211;50.154;8.682;2022-12-10T09:06:40;99264.00;;;7.80
65569;BMP180;52211;50.154;8.682;2022-12-10T09:09:07;99256.00;;;7.80
65569;BMP180;52211;50.154;8.682;2022-12-10T09:11:35;99254.00;;;7.80
65569;BMP180;52211;50.154;8.682;2022-12-10T09:14:02;99263.00;;;7.90
65569;BMP180;52211;50.154;8.682;2022-12-10T09:16:36;99259.00;;;7.90
65569;BMP180;52211;50.154;8.682;2022-12-10T09:19:06;99261.00;;;7.90
65569;BMP180;52211;50.154;8.682;2022-12-10T09:21:36;99271.00;;;8.00
65569;BMP180;52211;50.154;8.682;2022-12-10T09:24:05;99268.00;;;8.00
65569;BMP180;52211;50.154;8.682;2022-12-10T09:26:35;99272.00;;;8.00
65569;BMP180;52211;50.154;8.682;2022-12-10T09:29:04;99272.00;;;8.10
65569;BMP180;52211;50.154;8.682;2022-12-10T09:31:33;99272.00;;;8.10
65569;BMP180;52211;50.154;8.682;2022-12-10T09:34:00;99265.00;;;8.20
65569;BMP180;52211;50.154;8.682;2022-12-10T09:36:27;99270.00;;;8.20
65569;BMP180;52211;50.154;8.682;2022-12-10T09:39:02;99274.00;;;8.30
65569;BMP180;52211;50.154;8.682;2022-12-10T09:42:18;99271.00;;;8.30
65569;BMP180;52211;50.154;8.682;2022-12-10T09:44:58;99275.00;;;8.30
65569;BMP180;52211;50.154;8.682;2022-12-10T09:50:52;99265.00;;;8.30
65569;BMP180;52211;50.154;8.682;2022-12-10T09:53:24;99270.00;;;8.40
65569;BMP180;52211;50.154;8.682;2022-12-10T09:55:54;99264.00;;;8.40
65569;BMP180;52211;50.154;8.682;2022-12-10T09:58:25;99258.00;;;8.40
65569;BMP180;52211;50.154;8.682;2022-12-10T10:01:03;99259.00;;;8.50
65569;BMP180;52211;50.154;8.682;2022-12-10T10:03:43;99263.00;;;8.50
65569;BMP180;52211;50.154;8.682;2022-12-10T10:06:15;99250.00;;;8.60
65569;BMP180;52211;50.154;8.682;2022-12-10T10:08:46;99256.00;;;8.60
65569;BMP180;52211;50.154;8.682;2022-12-10T10:11:24;99256.00;;;8.70
65569;BMP180;52211;50.154;8.682;2022-12-10T10:14:08;99259.00;;;8.70
65569;BMP180;52211;50.154;8.682;2022-12-10T10:16:50;99259.00;;;8.80
65569;BMP180;52211;50.154;8.682;2022-12-10T10:19:30;99263.00;;;8.90
65569;BMP180;52211;50.154;8.682;2022-12-10T10:22:00;99263.00;;;9.00
65569;BMP180;52211;50.154;8.682;2022-12-10T10:24:35;99264.00;;;9.00
65569;BMP180;52211;50.154;8.682;2022-12-10T10:27:21;99266.00;;;9.00
65569;BMP180;52211;50.154;8.682;2022-12-10T10:29:52;99266.00;;;9.10
65569;BMP180;52211;50.154;8.682;2022-12-10T10:35:22;99267.00;;;9.10
65569;BMP180;52211;50.154;8.682;2022-12-10T10:38:07;99257.00;;;9.20
65569;BMP180;52211;50.154;8.682;2022-12-10T10:40:50;99269.00;;;9.20
65569;BMP180;52211;50.154;8.682;2022-12-10T10:43:26;99260.00;;;9.10
65569;BMP180;52211;50.154;8.682;2022-12-10T10:46:04;99260.00;;;9.10
65569;BMP180;52211;50.154;8.682;2022-12-10T10:48:33;99262.00;;;9.10
65569;BMP180;52211;50.154;8.682;2022-12-10T10:51:21;99259.00;;;9.10
65569;BMP180;52211;50.154;8.682;2022-12-10T10:53:53;99263.00;;;9.20
65569;BMP180;52211;50.154;8.682;2022-12-10T10:56:29;99263.00;;;9.20
65569;BMP180;52211;50.154;8.682;2022-12-10T10:59:02;99257.00;;;9.20
65569;BMP180;52211;50.154;8.682;2022-12-10T11:01:57;99256.00;;;9.20
65569;BMP180;52211;50.154;8.682;2022-12-10T11:04:36;99264.00;;;9.20
65569;BMP180;52211;50.154;8.682;2022-12-10T11:07:33;99261.00;;;9.20
65569;BMP180;52211;50.154;8.682;2022-12-10T11:10:18;99260.00;;;9.20
65569;BMP180;52211;50.154;8.682;2022-12-10T11:13:22;99266.00;;;9.30
65569;BMP180;52211;50.154;8.682;2022-12-10T11:16:22;99267.00;;;9.30
65569;BMP180;52211;50.154;8.682;2022-12-10T11:19:02;99266.00;;;9.30
65569;BMP180;52211;50.154;8.682;2022-12-10T11:21:34;99266.00;;;9.30
65569;BMP180;52211;50.154;8.682;2022-12-10T11:24:11;99275.00;;;9.30
65569;BMP180;52211;50.154;8.682;2022-12-10T11:26:56;99270.00;;;9.30
65569;BMP180;52211;50.154;8.682;2022-12-10T11:32:59;99271.00;;;9.30
65569;BMP180;52211;50.154;8.682;2022-12-10T11:38:27;99263.00;;;9.40
65569;BMP180;52211;50.154;8.682;2022-12-10T11:41:16;99258.00;;;9.50
65569;BMP180;52211;50.154;8.682;2022-12-10T11:55:36;99273.00;;;9.60
65569;BMP180;52211;50.154;8.682;2022-12-10T11:58:40;99275.00;;;9.70
65569;BMP180;52211;50.154;8.682;2022-12-10T12:04:59;99272.00;;;10.10
65569;BMP180;52211;50.154;8.682;2022-12-10T12:16:23;99278.00;;;13.00
65569;BMP180;52211;50.154;8.682;2022-12-10T12:19:19;99278.00;;;13.80
65569;BMP180;52211;50.154;8.682;2022-12-10T12:21:51;99278.00;;;14.40
65569;BMP180;52211;50.154;8.682;2022-12-10T12:24:40;99276.00;;;15.00
65569;BMP180;52211;50.154;8.682;2022-12-10T12:35:52;99267.00;;;16.50
65569;BMP180;52211;50.154;8.682;2022-12-10T12:38:32;99284.00;;;16.70
65569;BMP180;52211;50.154;8.682;2022-12-10T12:41:32;99274.00;;;16.90
65569;BMP180;52211;50.154;8.682;2022-12-10T12:46:49;99280.00;;;17.20
65569;BMP180;52211;50.154;8.682;2022-12-10T12:49:24;99278.00;;;17.20
65569;BMP180;52211;50.154;8.682;2022-12-10T12:58:03;99290.00;;;17.50
65569;BMP180;52211;50.154;8.682;2022-12-10T13:00:40;99296.00;;;17.50
65569;BMP180;52211;50.154;8.682;2022-12-10T13:03:39;99291.00;;;17.50
65569;BMP180;52211;50.154;8.682;2022-12-10T13:17:37;99299.00;;;15.60
65569;BMP180;52211;50.154;8.682;2022-12-10T13:24:03;99308.00;;;14.90
65569;BMP180;52211;50.154;8.682;2022-12-10T13:26:35;99298.00;;;14.80
65569;BMP180;52211;50.154;8.682;2022-12-10T13:29:25;99311.00;;;14.60
65569;BMP180;52211;50.154;8.682;2022-12-10T13:32:43;99312.00;;;14.50
65569;BMP180;52211;50.154;8.682;2022-12-10T13:46:32;99328.00;;;14.00
65569;BMP180;52211;50.154;8.682;2022-12-10T13:49:16;99324.00;;;13.70
65569;BMP180;52211;50.154;8.682;2022-12-10T13:52:05;99328.00;;;13.40
65569;BMP180;52211;50.154;8.682;2022-12-10T13:58:26;99346.00;;;12.80
65569;BMP180;52211;50.154;8.682;2022-12-10T14:01:42;99356.00;;;12.60
65569;BMP180;52211;50.154;8.682;2022-12-10T14:04:51;99353.00;;;12.50
65569;BMP180;52211;50.154;8.682;2022-12-10T14:07:21;99357.00;;;12.40
65569;BMP180;52211;50.154;8.682;2022-12-10T14:09:56;99362.00;;;12.20
65569;BMP180;52211;50.154;8.682;2022-12-10T14:12:37;99367.00;;;12.00
65569;BMP180;52211;50.154;8.682;2022-12-10T14:15:19;99372.00;;;11.90
65569;BMP180;52211;50.154;8.682;2022-12-10T14:17:57;99378.00;;;11.70
65569;BMP180;52211;50.154;8.682;2022-12-10T14:20:34;99372.00;;;11.50
65569;BMP180;52211;50.154;8.682;2022-12-10T14:26:29;99376.00;;;11.10
65569;BMP180;52211;50.154;8.682;2022-12-10T14:29:01;99376.00;;;11.00
65569;BMP180;52211;50.154;8.682;2022-12-10T14:31:35;99378.00;;;10.80
65569;BMP180;52211;50.154;8.682;2022-12-10T14:34:13;99380.00;;;10.70
65569;BMP180;52211;50.154;8.682;2022-12-10T14:36:57;99381.00;;;10.50
65569;BMP180;52211;50.154;8.682;2022-12-10T14:47:50;99394.00;;;10.00
65569;BMP180;52211;50.154;8.682;2022-12-10T14:50:21;99406.00;;;9.90
65569;BMP180;52211;50.154;8.682;2022-12-10T14:52:52;99405.00;;;9.80
65569;BMP180;52211;50.154;8.682;2022-12-10T14:55:23;99403.00;;;9.70
65569;BMP180;52211;50.154;8.682;2022-12-10T14:58:01;99406.00;;;9.60
65569;BMP180;52211;50.154;8.682;2022-12-10T15:00:35;99412.00;;;9.60
65569;BMP180;52211;50.154;8.682;2022-12-10T15:03:09;99406.00;;;9.50
65569;BMP180;52211;50.154;8.682;2022-12-10T15:05:38;99405.00;;;9.40
65569;BMP180;52211;50.154;8.682;2022-12-10T15:08:13;99415.00;;;9.30
65569;BMP180;52211;50.154;8.682;2022-12-10T15:10:50;99414.00;;;9.20
65569;BMP180;52211;50.154;8.682;2022-12-10T15:16:01;99409.00;;;9.10
65569;BMP180;52211;50.154;8.682;2022-12-10T15:18:36;99415.00;;;9.10
65569;BMP180;52211;50.154;8.682;2022-12-10T15:21:26;99429.00;;;8.90
65569;BMP180;52211;50.154;8.682;2022-12-10T15:26:48;99410.00;;;8.80
65569;BMP180;52211;50.154;8.682;2022-12-10T15:32:13;99413.00;;;8.70
65569;BMP180;52211;50.154;8.682;2022-12-10T15:34:51;99413.00;;;8.60
65569;BMP180;52211;50.154;8.682;2022-12-10T15:37:32;99415.00;;;8.60
65569;BMP180;52211;50.154;8.682;2022-12-10T15:40:05;99416.00;;;8.50
65569;BMP180;52211;50.154;8.682;2022-12-10T15:42:41;99419.00;;;8.50
65569;BMP180;52211;50.154;8.682;2022-12-10T15:47:47;99420.00;;;8.40
65569;BMP180;52211;50.154;8.682;2022-12-10T15:50:16;99427.00;;;8.30
65569;BMP180;52211;50.154;8.682;2022-12-10T15:52:44;99420.00;;;8.20
65569;BMP180;52211;50.154;8.682;2022-12-10T15:55:13;99428.00;;;8.20
65569;BMP180;52211;50.154;8.682;2022-12-10T15:57:41;99426.00;;;8.10
65569;BMP180;52211;50.154;8.682;2022-12-10T16:00:20;99431.00;;;8.10
65569;BMP180;52211;50.154;8.682;2022-12-10T16:03:05;99431.00;;;8.00
65569;BMP180;52211;50.154;8.682;2022-12-10T16:05:37;99431.00;;;8.00
65569;BMP180;52211;50.154;8.682;2022-12-10T16:10:49;99435.00;;;7.90
65569;BMP180;52211;50.154;8.682;2022-12-10T16:40:32;99457.00;;;6.10
65569;BMP180;52211;50.154;8.682;2022-12-10T16:43:21;99458.00;;;6.20
65569;BMP180;52211;50.154;8.682;2022-12-10T16:45:52;99461.00;;;6.30
65569;BMP180;52211;50.154;8.682;2022-12-10T16:48:21;99450.00;;;6.30
65569;BMP180;52211;50.154;8.682;2022-12-10T16:50:51;99451.00;;;6.40
65569;BMP180;52211;50.154;8.682;2022-12-10T16:53:29;99454.00;;;6.40
65569;BMP180;52211;50.154;8.682;2022-12-10T16:56:04;99461.00;;;6.40
65569;BMP180;52211;50.154;8.682;2022-12-10T16:58:34;99460.00;;;6.40
65569;BMP180;52211;50.154;8.682;2022-12-10T17:01:01;99464.00;;;6.40
65569;BMP180;52211;50.154;8.682;2022-12-10T17:03:33;99469.00;;;6.40
65569;BMP180;52211;50.154;8.682;2022-12-10T17:06:05;99472.00;;;6.40
65569;BMP180;52211;50.154;8.682;2022-12-10T17:08:37;99468.00;;;6.30
65569;BMP180;52211;50.154;8.682;2022-12-10T17:11:21;99462.00;;;6.30
65569;BMP180;52211;50.154;8.682;2022-12-10T17:14:25;99468.00;;;6.30
65569;BMP180;52211;50.154;8.682;2022-12-10T17:16:55;99469.00;;;6.30
65569;BMP180;52211;50.154;8.682;2022-12-10T17:19:36;99470.00;;;6.20
65569;BMP180;52211;50.154;8.682;2022-12-10T17:22:04;99468.00;;;6.20
65569;BMP180;52211;50.154;8.682;2022-12-10T17:24:37;99476.00;;;6.20